Pilot Station, AK (99650)

4:55 PM AKST on November 26, 2014 (GMT -0900)
RAWS REINDEER RIVER AK US | Change Station
CLOSE
Current Station
Personal Weather Station
Location: Pilot Station, AK
Elevation: 179 ft
Nearby Weather Stations

Elev 179 ft 61.72 °N, 162.66 °W | Updated 58 minutes ago

Overcast
Overcast
26 °F
Feels Like 18 °F
N
7
Wind Variable Wind from East
Gusts 9.0 mph

Today
High -- | Low -- °F
--% Chance of Precip.
Yesterday
High -- | Low -- °F
Precip. -- in
10:31 AM 4:48 PM
Waxing Crescent, 24% visible
Pressure 30.18 in
Visibility 10.0 miles
Clouds Overcast 3100 ft
Windchill 18 °F
Dew Point 22 °F
Humidity 84%
Rainfall 0.00 in
Snow Depth Not available.
UV 0 out of 12
Pollen Not available.
Air Quality Not available.
Flu Activity Not available.
METAR PASM 270136Z AUTO 09013KT 10SM OVC031 M05/M08 A3018 RMK AO1

More Conditions Fewer Conditions

Pressure 30.18 in
Visibility 10.0 miles
Clouds Overcast 3100 ft
Windchill 18 °F
Dew Point 22 °F
Humidity 84%
Rainfall 0.00 in
Snow Depth Not available.
UV 0 out of 12
Pollen Not available.
Air Quality Not available.
Flu Activity Not available.
METAR PASM 270136Z AUTO 09013KT 10SM OVC031 M05/M08 A3018 RMK AO1

More Conditions Fewer Conditions

10-Day Weather Forecast

Almanac

Astronomy

Nov. 26, 2014 Rise Set
Actual Time
Civil Twilight
Nautical Twilight
Astronomical Twilight
Moon
Length of Visible Light
Length of Day
Tomorrow will be .
, % of the Moon is Illuminated

Today's Extremes

State Highs State Lows

Community

WunderPhotos

Upload Photos

1,773,940 photos uploaded!

WunderBlogs® & News

Nearby

Air Quality

  Air Quality AQ Index Pollutant
Not available.

Snow Depth

Station Depth Elevation

Earthquake Activity

City Distance Mag. Time & Date
Minimum magnitude displayed is 2.5.

Coastal Water Temperatures

Place Temperature

Nearby Weather Stations